sensor_id;sensor_type;location;lat;lon;timestamp;temperature;humidity
43143;DHT22;28750;59.842;17.584;2024-03-25T00:00:33;-0.60;99.90
43143;DHT22;28750;59.842;17.584;2024-03-25T00:03:00;-0.60;99.90
43143;DHT22;28750;59.842;17.584;2024-03-25T00:05:27;-0.70;99.90
43143;DHT22;28750;59.842;17.584;2024-03-25T00:07:54;-0.50;99.90
43143;DHT22;28750;59.842;17.584;2024-03-25T00:10:21;-0.60;99.90
43143;DHT22;28750;59.842;17.584;2024-03-25T00:12:48;-0.60;99.90
43143;DHT22;28750;59.842;17.584;2024-03-25T00:15:19;-0.60;99.90
43143;DHT22;28750;59.842;17.584;2024-03-25T00:17:46;-0.60;99.90
43143;DHT22;28750;59.842;17.584;2024-03-25T00:20:14;-0.60;99.90
43143;DHT22;28750;59.842;17.584;2024-03-25T00:22:41;-0.60;99.90
43143;DHT22;28750;59.842;17.584;2024-03-25T00:25:08;-0.60;99.90
43143;DHT22;28750;59.842;17.584;2024-03-25T00:27:35;-0.60;99.90
43143;DHT22;28750;59.842;17.584;2024-03-25T00:30:02;-0.60;99.90
43143;DHT22;28750;59.842;17.584;2024-03-25T00:32:28;-0.60;99.90
43143;DHT22;28750;59.842;17.584;2024-03-25T00:34:56;-0.70;99.90
43143;DHT22;28750;59.842;17.584;2024-03-25T00:37:22;-0.60;99.90
43143;DHT22;28750;59.842;17.584;2024-03-25T00:39:50;-0.60;99.90
43143;DHT22;28750;59.842;17.584;2024-03-25T00:42:16;-0.60;99.90
43143;DHT22;28750;59.842;17.584;2024-03-25T00:44:43;-0.60;99.90
43143;DHT22;28750;59.842;17.584;2024-03-25T00:47:09;-0.60;99.90
43143;DHT22;28750;59.842;17.584;2024-03-25T00:49:37;-0.50;99.90
43143;DHT22;28750;59.842;17.584;2024-03-25T00:52:03;-0.50;99.90
43143;DHT22;28750;59.842;17.584;2024-03-25T00:54:30;-0.60;99.90
43143;DHT22;28750;59.842;17.584;2024-03-25T00:56:56;-0.60;99.90
43143;DHT22;28750;59.842;17.584;2024-03-25T00:59:24;-0.60;99.90
43143;DHT22;28750;59.842;17.584;2024-03-25T01:01:50;-0.60;99.90
43143;DHT22;28750;59.842;17.584;2024-03-25T01:04:17;-0.60;99.90
43143;DHT22;28750;59.842;17.584;2024-03-25T01:06:43;-0.50;99.90
43143;DHT22;28750;59.842;17.584;2024-03-25T01:09:10;-0.50;99.90
43143;DHT22;28750;59.842;17.584;2024-03-25T01:11:36;-0.50;99.90
43143;DHT22;28750;59.842;17.584;2024-03-25T01:14:03;-0.50;99.90
43143;DHT22;28750;59.842;17.584;2024-03-25T01:16:29;-0.50;99.90
43143;DHT22;28750;59.842;17.584;2024-03-25T01:18:57;-0.60;99.90
43143;DHT22;28750;59.842;17.584;2024-03-25T01:21:25;-0.60;99.90
43143;DHT22;28750;59.842;17.584;2024-03-25T01:23:52;-0.50;99.90
43143;DHT22;28750;59.842;17.584;2024-03-25T01:26:18;-0.50;99.90
43143;DHT22;28750;59.842;17.584;2024-03-25T01:28:45;-0.50;99.90
43143;DHT22;28750;59.842;17.584;2024-03-25T01:31:11;-0.50;99.90
43143;DHT22;28750;59.842;17.584;2024-03-25T01:33:39;-0.50;99.90
43143;DHT22;28750;59.842;17.584;2024-03-25T01:36:05;-0.50;99.90
43143;DHT22;28750;59.842;17.584;2024-03-25T01:38:33;-0.50;99.90
43143;DHT22;28750;59.842;17.584;2024-03-25T01:41:09;-0.50;99.90
43143;DHT22;28750;59.842;17.584;2024-03-25T01:43:37;-0.50;99.90
43143;DHT22;28750;59.842;17.584;2024-03-25T01:46:03;-0.60;99.90
43143;DHT22;28750;59.842;17.584;2024-03-25T01:48:31;-0.50;99.90
43143;DHT22;28750;59.842;17.584;2024-03-25T01:50:58;-0.50;99.90
43143;DHT22;28750;59.842;17.584;2024-03-25T01:53:28;-0.50;99.90
43143;DHT22;28750;59.842;17.584;2024-03-25T01:55:56;-0.50;99.90
43143;DHT22;28750;59.842;17.584;2024-03-25T01:58:25;-0.60;99.90
43143;DHT22;28750;59.842;17.584;2024-03-25T02:00:53;-0.60;99.90
43143;DHT22;28750;59.842;17.584;2024-03-25T02:03:22;-0.60;99.90
43143;DHT22;28750;59.842;17.584;2024-03-25T02:05:52;-0.60;99.90
43143;DHT22;28750;59.842;17.584;2024-03-25T02:08:22;-0.60;99.90
43143;DHT22;28750;59.842;17.584;2024-03-25T02:10:48;-0.60;99.90
43143;DHT22;28750;59.842;17.584;2024-03-25T02:13:16;-0.60;99.90
43143;DHT22;28750;59.842;17.584;2024-03-25T02:15:42;-0.60;99.90
43143;DHT22;28750;59.842;17.584;2024-03-25T02:18:09;-0.60;99.90
43143;DHT22;28750;59.842;17.584;2024-03-25T02:20:35;-0.60;99.90
43143;DHT22;28750;59.842;17.584;2024-03-25T02:23:03;-0.40;99.90
43143;DHT22;28750;59.842;17.584;2024-03-25T02:25:31;-0.40;99.90
43143;DHT22;28750;59.842;17.584;2024-03-25T02:27:59;-0.40;99.90
43143;DHT22;28750;59.842;17.584;2024-03-25T02:30:26;-0.30;99.90
43143;DHT22;28750;59.842;17.584;2024-03-25T02:32:54;-0.40;99.90
43143;DHT22;28750;59.842;17.584;2024-03-25T02:35:21;-0.40;99.90
43143;DHT22;28750;59.842;17.584;2024-03-25T02:37:51;-0.30;99.90
43143;DHT22;28750;59.842;17.584;2024-03-25T02:40:17;-0.40;99.90
43143;DHT22;28750;59.842;17.584;2024-03-25T02:42:45;-0.40;99.90
43143;DHT22;28750;59.842;17.584;2024-03-25T02:45:12;-0.50;99.90
43143;DHT22;28750;59.842;17.584;2024-03-25T02:47:39;-0.50;99.90
43143;DHT22;28750;59.842;17.584;2024-03-25T02:50:06;-0.50;99.90
43143;DHT22;28750;59.842;17.584;2024-03-25T02:52:33;-0.50;99.90
43143;DHT22;28750;59.842;17.584;2024-03-25T02:54:59;-0.50;99.90
43143;DHT22;28750;59.842;17.584;2024-03-25T02:57:27;-0.50;99.90
43143;DHT22;28750;59.842;17.584;2024-03-25T02:59:53;-0.50;99.90
43143;DHT22;28750;59.842;17.584;2024-03-25T03:02:20;-0.50;99.90
43143;DHT22;28750;59.842;17.584;2024-03-25T03:04:46;-0.50;99.90
43143;DHT22;28750;59.842;17.584;2024-03-25T03:07:13;-0.50;99.90
43143;DHT22;28750;59.842;17.584;2024-03-25T03:09:40;-0.50;99.90
43143;DHT22;28750;59.842;17.584;2024-03-25T03:12:07;-0.50;99.90
43143;DHT22;28750;59.842;17.584;2024-03-25T03:14:33;-0.50;99.90
43143;DHT22;28750;59.842;17.584;2024-03-25T03:17:00;-0.50;99.90
43143;DHT22;28750;59.842;17.584;2024-03-25T03:19:30;-0.50;99.90
43143;DHT22;28750;59.842;17.584;2024-03-25T03:21:58;-0.60;99.90
43143;DHT22;28750;59.842;17.584;2024-03-25T03:24:24;-0.50;99.90
43143;DHT22;28750;59.842;17.584;2024-03-25T03:26:51;-0.50;99.90
43143;DHT22;28750;59.842;17.584;2024-03-25T03:29:17;-0.40;99.90
43143;DHT22;28750;59.842;17.584;2024-03-25T03:31:45;-0.40;99.90
43143;DHT22;28750;59.842;17.584;2024-03-25T03:34:11;-0.50;99.90
43143;DHT22;28750;59.842;17.584;2024-03-25T03:36:38;-0.60;99.90
43143;DHT22;28750;59.842;17.584;2024-03-25T03:39:06;-0.40;99.90
43143;DHT22;28750;59.842;17.584;2024-03-25T03:41:34;-0.40;99.90
43143;DHT22;28750;59.842;17.584;2024-03-25T03:44:01;-0.50;99.90
43143;DHT22;28750;59.842;17.584;2024-03-25T03:46:29;-0.60;99.90
43143;DHT22;28750;59.842;17.584;2024-03-25T03:48:55;-0.60;99.90
43143;DHT22;28750;59.842;17.584;2024-03-25T03:51:22;-0.60;99.90
43143;DHT22;28750;59.842;17.584;2024-03-25T03:53:48;-0.50;99.90
43143;DHT22;28750;59.842;17.584;2024-03-25T03:56:15;-0.50;99.90
43143;DHT22;28750;59.842;17.584;2024-03-25T03:58:42;-0.40;99.90
43143;DHT22;28750;59.842;17.584;2024-03-25T04:01:16;-0.40;99.90
43143;DHT22;28750;59.842;17.584;2024-03-25T04:03:42;-0.50;99.90
43143;DHT22;28750;59.842;17.584;2024-03-25T04:06:13;-0.50;99.90
43143;DHT22;28750;59.842;17.584;2024-03-25T04:08:40;-0.60;99.90
43143;DHT22;28750;59.842;17.584;2024-03-25T04:11:07;-0.60;99.90
43143;DHT22;28750;59.842;17.584;2024-03-25T04:13:34;-0.50;99.90
43143;DHT22;28750;59.842;17.584;2024-03-25T04:16:03;-0.60;99.90
43143;DHT22;28750;59.842;17.584;2024-03-25T04:18:30;-0.50;99.90
43143;DHT22;28750;59.842;17.584;2024-03-25T04:20:58;-0.50;99.90
43143;DHT22;28750;59.842;17.584;2024-03-25T04:23:25;-0.50;99.90
43143;DHT22;28750;59.842;17.584;2024-03-25T04:25:52;-0.40;99.90
43143;DHT22;28750;59.842;17.584;2024-03-25T04:28:19;-0.50;99.90
43143;DHT22;28750;59.842;17.584;2024-03-25T04:30:52;-0.60;99.90
43143;DHT22;28750;59.842;17.584;2024-03-25T04:33:18;-0.50;99.90
43143;DHT22;28750;59.842;17.584;2024-03-25T04:35:46;-0.60;99.90
43143;DHT22;28750;59.842;17.584;2024-03-25T04:38:15;-0.70;99.90
43143;DHT22;28750;59.842;17.584;2024-03-25T04:40:41;-0.60;99.90
43143;DHT22;28750;59.842;17.584;2024-03-25T04:43:07;-0.60;99.90
43143;DHT22;28750;59.842;17.584;2024-03-25T04:45:33;-0.60;99.90
43143;DHT22;28750;59.842;17.584;2024-03-25T04:47:59;-0.70;99.90
43143;DHT22;28750;59.842;17.584;2024-03-25T04:50:26;-0.70;99.90
43143;DHT22;28750;59.842;17.584;2024-03-25T04:52:52;-0.60;99.90
43143;DHT22;28750;59.842;17.584;2024-03-25T04:55:18;-0.50;99.90
43143;DHT22;28750;59.842;17.584;2024-03-25T04:57:44;-0.50;99.90
43143;DHT22;28750;59.842;17.584;2024-03-25T05:00:11;-0.50;99.90
43143;DHT22;28750;59.842;17.584;2024-03-25T05:02:38;-0.60;99.90
43143;DHT22;28750;59.842;17.584;2024-03-25T05:05:04;-0.70;99.90
43143;DHT22;28750;59.842;17.584;2024-03-25T05:07:31;-0.60;99.90
43143;DHT22;28750;59.842;17.584;2024-03-25T05:09:57;-0.50;99.90
43143;DHT22;28750;59.842;17.584;2024-03-25T05:12:23;-0.60;99.90
43143;DHT22;28750;59.842;17.584;2024-03-25T05:14:49;-0.70;99.90
43143;DHT22;28750;59.842;17.584;2024-03-25T05:17:15;-0.90;99.90
43143;DHT22;28750;59.842;17.584;2024-03-25T05:19:41;-1.00;99.90
43143;DHT22;28750;59.842;17.584;2024-03-25T05:22:07;-1.00;99.90
43143;DHT22;28750;59.842;17.584;2024-03-25T05:24:33;-1.00;99.90
43143;DHT22;28750;59.842;17.584;2024-03-25T05:26:59;-0.90;99.90
43143;DHT22;28750;59.842;17.584;2024-03-25T05:29:25;-0.90;99.90
43143;DHT22;28750;59.842;17.584;2024-03-25T05:31:59;-0.90;99.90
43143;DHT22;28750;59.842;17.584;2024-03-25T05:34:26;-0.90;99.90
43143;DHT22;28750;59.842;17.584;2024-03-25T05:36:53;-1.00;99.90
43143;DHT22;28750;59.842;17.584;2024-03-25T05:39:20;-1.00;99.90
43143;DHT22;28750;59.842;17.584;2024-03-25T05:41:47;-1.00;99.90
43143;DHT22;28750;59.842;17.584;2024-03-25T05:44:13;-1.00;99.90
43143;DHT22;28750;59.842;17.584;2024-03-25T05:46:40;-0.80;99.90
43143;DHT22;28750;59.842;17.584;2024-03-25T05:49:06;-0.70;99.90
43143;DHT22;28750;59.842;17.584;2024-03-25T05:51:33;-0.30;99.90
43143;DHT22;28750;59.842;17.584;2024-03-25T05:53:59;0.10;99.90
43143;DHT22;28750;59.842;17.584;2024-03-25T05:56:26;0.30;99.90
43143;DHT22;28750;59.842;17.584;2024-03-25T05:58:53;0.50;99.90
43143;DHT22;28750;59.842;17.584;2024-03-25T06:01:19;0.30;99.90
43143;DHT22;28750;59.842;17.584;2024-03-25T06:03:45;0.40;99.90
43143;DHT22;28750;59.842;17.584;2024-03-25T06:06:11;0.50;99.90
43143;DHT22;28750;59.842;17.584;2024-03-25T06:08:37;0.50;99.90
43143;DHT22;28750;59.842;17.584;2024-03-25T06:11:03;0.70;99.90
43143;DHT22;28750;59.842;17.584;2024-03-25T06:13:29;0.80;99.90
43143;DHT22;28750;59.842;17.584;2024-03-25T06:15:56;0.80;99.90
43143;DHT22;28750;59.842;17.584;2024-03-25T06:18:22;1.00;99.90
43143;DHT22;28750;59.842;17.584;2024-03-25T06:20:48;0.90;99.90
43143;DHT22;28750;59.842;17.584;2024-03-25T06:23:27;1.00;99.90
43143;DHT22;28750;59.842;17.584;2024-03-25T06:25:55;1.00;99.90
43143;DHT22;28750;59.842;17.584;2024-03-25T06:28:21;1.00;99.90
43143;DHT22;28750;59.842;17.584;2024-03-25T06:30:48;0.90;99.90
43143;DHT22;28750;59.842;17.584;2024-03-25T06:33:33;1.00;99.90
43143;DHT22;28750;59.842;17.584;2024-03-25T06:36:19;1.00;99.90
43143;DHT22;28750;59.842;17.584;2024-03-25T06:38:45;0.60;99.90
43143;DHT22;28750;59.842;17.584;2024-03-25T06:41:12;0.90;99.90
43143;DHT22;28750;59.842;17.584;2024-03-25T06:43:38;0.90;99.90
43143;DHT22;28750;59.842;17.584;2024-03-25T06:46:05;0.90;99.90
43143;DHT22;28750;59.842;17.584;2024-03-25T06:48:32;0.60;99.90
43143;DHT22;28750;59.842;17.584;2024-03-25T06:50:59;1.00;99.90
43143;DHT22;28750;59.842;17.584;2024-03-25T06:53:26;1.20;99.90
43143;DHT22;28750;59.842;17.584;2024-03-25T06:55:55;1.20;99.90
43143;DHT22;28750;59.842;17.584;2024-03-25T06:58:22;1.30;99.90
43143;DHT22;28750;59.842;17.584;2024-03-25T07:00:49;1.40;99.90
43143;DHT22;28750;59.842;17.584;2024-03-25T07:03:16;1.30;99.90
43143;DHT22;28750;59.842;17.584;2024-03-25T07:05:47;1.20;99.90
43143;DHT22;28750;59.842;17.584;2024-03-25T07:08:14;1.00;99.90
43143;DHT22;28750;59.842;17.584;2024-03-25T07:10:44;1.30;99.90
43143;DHT22;28750;59.842;17.584;2024-03-25T07:13:10;1.20;99.90
43143;DHT22;28750;59.842;17.584;2024-03-25T07:15:36;0.90;26.70
43143;DHT22;28750;59.842;17.584;2024-03-25T07:18:03;0.90;1.00
43143;DHT22;28750;59.842;17.584;2024-03-25T07:20:32;0.90;14.00
43143;DHT22;28750;59.842;17.584;2024-03-25T07:22:58;1.10;10.10
43143;DHT22;28750;59.842;17.584;2024-03-25T07:25:25;1.10;1.00
43143;DHT22;28750;59.842;17.584;2024-03-25T07:27:52;1.00;1.00
43143;DHT22;28750;59.842;17.584;2024-03-25T07:30:18;1.00;1.00
43143;DHT22;28750;59.842;17.584;2024-03-25T07:32:44;1.00;1.00
43143;DHT22;28750;59.842;17.584;2024-03-25T07:35:10;1.10;1.00
43143;DHT22;28750;59.842;17.584;2024-03-25T07:37:36;1.10;99.90
43143;DHT22;28750;59.842;17.584;2024-03-25T07:40:03;1.20;99.90
43143;DHT22;28750;59.842;17.584;2024-03-25T07:42:29;1.30;99.90
43143;DHT22;28750;59.842;17.584;2024-03-25T07:44:56;1.40;99.90
43143;DHT22;28750;59.842;17.584;2024-03-25T07:47:22;1.50;99.90
43143;DHT22;28750;59.842;17.584;2024-03-25T07:49:48;1.30;99.90
43143;DHT22;28750;59.842;17.584;2024-03-25T07:52:14;1.50;99.90
43143;DHT22;28750;59.842;17.584;2024-03-25T07:54:40;1.70;99.90
43143;DHT22;28750;59.842;17.584;2024-03-25T07:57:06;1.90;99.90
43143;DHT22;28750;59.842;17.584;2024-03-25T07:59:32;1.80;99.90
43143;DHT22;28750;59.842;17.584;2024-03-25T08:01:58;2.10;99.90
43143;DHT22;28750;59.842;17.584;2024-03-25T08:04:24;2.40;99.90
43143;DHT22;28750;59.842;17.584;2024-03-25T08:06:50;2.20;99.90
43143;DHT22;28750;59.842;17.584;2024-03-25T08:09:16;2.60;99.90
43143;DHT22;28750;59.842;17.584;2024-03-25T08:11:42;2.50;99.90
43143;DHT22;28750;59.842;17.584;2024-03-25T08:14:08;2.80;99.90
43143;DHT22;28750;59.842;17.584;2024-03-25T08:16:34;2.70;1.00
43143;DHT22;28750;59.842;17.584;2024-03-25T08:19:00;3.10;78.70
43143;DHT22;28750;59.842;17.584;2024-03-25T08:21:26;2.80;1.00
43143;DHT22;28750;59.842;17.584;2024-03-25T08:23:52;2.60;99.90
43143;DHT22;28750;59.842;17.584;2024-03-25T08:26:18;2.20;99.90
43143;DHT22;28750;59.842;17.584;2024-03-25T08:28:44;2.20;99.90
43143;DHT22;28750;59.842;17.584;2024-03-25T08:31:10;2.10;1.00
43143;DHT22;28750;59.842;17.584;2024-03-25T08:33:37;1.70;1.00
43143;DHT22;28750;59.842;17.584;2024-03-25T08:36:03;1.70;1.00
43143;DHT22;28750;59.842;17.584;2024-03-25T08:38:29;2.20;23.70
43143;DHT22;28750;59.842;17.584;2024-03-25T08:40:55;2.20;99.90
43143;DHT22;28750;59.842;17.584;2024-03-25T08:43:21;2.20;99.90
43143;DHT22;28750;59.842;17.584;2024-03-25T08:45:47;2.40;58.80
43143;DHT22;28750;59.842;17.584;2024-03-25T08:48:13;2.70;99.90
43143;DHT22;28750;59.842;17.584;2024-03-25T08:50:39;2.60;99.90
43143;DHT22;28750;59.842;17.584;2024-03-25T08:53:05;2.70;99.90
43143;DHT22;28750;59.842;17.584;2024-03-25T08:55:31;2.70;99.90
43143;DHT22;28750;59.842;17.584;2024-03-25T08:57:58;2.70;99.90
43143;DHT22;28750;59.842;17.584;2024-03-25T09:00:25;2.60;99.90
43143;DHT22;28750;59.842;17.584;2024-03-25T09:02:51;2.70;1.00
43143;DHT22;28750;59.842;17.584;2024-03-25T09:05:17;2.80;1.00
43143;DHT22;28750;59.842;17.584;2024-03-25T09:07:49;2.80;99.90
43143;DHT22;28750;59.842;17.584;2024-03-25T09:10:16;2.70;1.00
43143;DHT22;28750;59.842;17.584;2024-03-25T09:13:00;2.90;1.00
43143;DHT22;28750;59.842;17.584;2024-03-25T09:15:26;2.50;99.90
43143;DHT22;28750;59.842;17.584;2024-03-25T09:17:52;2.40;99.90
43143;DHT22;28750;59.842;17.584;2024-03-25T09:20:18;2.20;99.90
43143;DHT22;28750;59.842;17.584;2024-03-25T09:22:45;1.90;99.90
43143;DHT22;28750;59.842;17.584;2024-03-25T09:25:11;2.20;99.90
43143;DHT22;28750;59.842;17.584;2024-03-25T09:27:37;2.50;99.90
43143;DHT22;28750;59.842;17.584;2024-03-25T09:30:04;2.70;99.90
43143;DHT22;28750;59.842;17.584;2024-03-25T09:32:30;2.30;99.90
43143;DHT22;28750;59.842;17.584;2024-03-25T09:34:57;2.70;99.90
43143;DHT22;28750;59.842;17.584;2024-03-25T09:37:23;3.10;99.90
43143;DHT22;28750;59.842;17.584;2024-03-25T09:39:49;2.70;88.90
43143;DHT22;28750;59.842;17.584;2024-03-25T09:42:21;2.90;99.90
43143;DHT22;28750;59.842;17.584;2024-03-25T09:44:51;2.80;99.90
43143;DHT22;28750;59.842;17.584;2024-03-25T09:47:17;2.50;99.90
43143;DHT22;28750;59.842;17.584;2024-03-25T09:49:44;2.60;99.90
43143;DHT22;28750;59.842;17.584;2024-03-25T09:52:11;3.20;99.90
43143;DHT22;28750;59.842;17.584;2024-03-25T09:54:37;3.20;50.70
43143;DHT22;28750;59.842;17.584;2024-03-25T09:57:04;3.40;20.20
43143;DHT22;28750;59.842;17.584;2024-03-25T09:59:30;3.80;99.90
43143;DHT22;28750;59.842;17.584;2024-03-25T10:01:58;4.00;96.80
43143;DHT22;28750;59.842;17.584;2024-03-25T10:04:25;3.90;99.90
43143;DHT22;28750;59.842;17.584;2024-03-25T10:06:51;3.30;89.30
43143;DHT22;28750;59.842;17.584;2024-03-25T10:09:21;3.80;1.00
43143;DHT22;28750;59.842;17.584;2024-03-25T10:11:50;3.10;1.00
43143;DHT22;28750;59.842;17.584;2024-03-25T10:14:16;3.30;1.00
43143;DHT22;28750;59.842;17.584;2024-03-25T10:16:43;3.20;1.00
43143;DHT22;28750;59.842;17.584;2024-03-25T10:19:10;3.00;1.00
43143;DHT22;28750;59.842;17.584;2024-03-25T10:21:36;2.90;22.50
43143;DHT22;28750;59.842;17.584;2024-03-25T10:24:05;3.20;99.90
43143;DHT22;28750;59.842;17.584;2024-03-25T10:26:32;3.80;45.70
43143;DHT22;28750;59.842;17.584;2024-03-25T10:29:00;3.80;99.90
43143;DHT22;28750;59.842;17.584;2024-03-25T10:31:26;3.70;99.90
43143;DHT22;28750;59.842;17.584;2024-03-25T10:33:52;3.00;99.90
43143;DHT22;28750;59.842;17.584;2024-03-25T10:36:19;2.40;1.00
43143;DHT22;28750;59.842;17.584;2024-03-25T10:38:48;3.00;72.60
43143;DHT22;28750;59.842;17.584;2024-03-25T10:41:17;3.00;1.00
43143;DHT22;28750;59.842;17.584;2024-03-25T10:43:48;2.80;99.90
43143;DHT22;28750;59.842;17.584;2024-03-25T10:46:23;2.90;2.80
43143;DHT22;28750;59.842;17.584;2024-03-25T10:48:58;2.80;22.90
43143;DHT22;28750;59.842;17.584;2024-03-25T10:51:27;3.10;99.90
43143;DHT22;28750;59.842;17.584;2024-03-25T10:53:54;2.80;94.40
43143;DHT22;28750;59.842;17.584;2024-03-25T10:56:21;3.10;1.00
43143;DHT22;28750;59.842;17.584;2024-03-25T10:58:50;2.90;99.90
43143;DHT22;28750;59.842;17.584;2024-03-25T11:01:18;3.00;99.90
43143;DHT22;28750;59.842;17.584;2024-03-25T11:03:48;3.30;99.90
43143;DHT22;28750;59.842;17.584;2024-03-25T11:06:15;2.90;99.90
43143;DHT22;28750;59.842;17.584;2024-03-25T11:08:41;3.40;1.00
43143;DHT22;28750;59.842;17.584;2024-03-25T11:11:07;3.50;99.90
43143;DHT22;28750;59.842;17.584;2024-03-25T11:13:34;3.30;99.90
43143;DHT22;28750;59.842;17.584;2024-03-25T11:16:00;3.50;99.90
43143;DHT22;28750;59.842;17.584;2024-03-25T11:18:26;3.70;99.90
43143;DHT22;28750;59.842;17.584;2024-03-25T11:21:06;3.90;99.90
43143;DHT22;28750;59.842;17.584;2024-03-25T11:23:42;3.70;99.90
43143;DHT22;28750;59.842;17.584;2024-03-25T11:26:24;3.80;99.90
43143;DHT22;28750;59.842;17.584;2024-03-25T11:28:50;3.90;1.00
43143;DHT22;28750;59.842;17.584;2024-03-25T11:31:18;4.00;1.00
43143;DHT22;28750;59.842;17.584;2024-03-25T11:33:46;3.90;20.30
43143;DHT22;28750;59.842;17.584;2024-03-25T11:36:12;3.90;99.90
43143;DHT22;28750;59.842;17.584;2024-03-25T11:38:38;3.80;30.80
43143;DHT22;28750;59.842;17.584;2024-03-25T11:41:05;3.90;99.90
43143;DHT22;28750;59.842;17.584;2024-03-25T11:43:32;4.00;93.30
43143;DHT22;28750;59.842;17.584;2024-03-25T11:45:58;3.80;1.00
43143;DHT22;28750;59.842;17.584;2024-03-25T11:48:25;3.90;1.00
43143;DHT22;28750;59.842;17.584;2024-03-25T11:50:51;4.20;99.90
43143;DHT22;28750;59.842;17.584;2024-03-25T11:53:18;4.00;99.90
43143;DHT22;28750;59.842;17.584;2024-03-25T11:55:47;4.00;99.90
43143;DHT22;28750;59.842;17.584;2024-03-25T11:58:14;3.90;1.00
43143;DHT22;28750;59.842;17.584;2024-03-25T12:00:45;3.60;1.00
43143;DHT22;28750;59.842;17.584;2024-03-25T12:03:13;3.40;99.90
43143;DHT22;28750;59.842;17.584;2024-03-25T12:05:40;3.40;99.90
43143;DHT22;28750;59.842;17.584;2024-03-25T12:08:10;3.50;99.90
43143;DHT22;28750;59.842;17.584;2024-03-25T12:10:37;3.40;99.90
43143;DHT22;28750;59.842;17.584;2024-03-25T12:13:22;3.50;99.90
43143;DHT22;28750;59.842;17.584;2024-03-25T12:15:48;3.50;99.90
43143;DHT22;28750;59.842;17.584;2024-03-25T12:18:15;3.30;99.90
43143;DHT22;28750;59.842;17.584;2024-03-25T12:20:41;3.30;99.90
43143;DHT22;28750;59.842;17.584;2024-03-25T12:23:07;3.30;99.90
43143;DHT22;28750;59.842;17.584;2024-03-25T12:25:33;3.70;99.90
43143;DHT22;28750;59.842;17.584;2024-03-25T12:27:59;3.50;99.90
43143;DHT22;28750;59.842;17.584;2024-03-25T12:30:25;3.50;99.90
43143;DHT22;28750;59.842;17.584;2024-03-25T12:32:51;3.60;99.90
43143;DHT22;28750;59.842;17.584;2024-03-25T12:35:19;3.90;99.90
43143;DHT22;28750;59.842;17.584;2024-03-25T12:37:48;3.70;99.90
43143;DHT22;28750;59.842;17.584;2024-03-25T12:40:26;3.40;99.90
43143;DHT22;28750;59.842;17.584;2024-03-25T12:42:52;3.60;99.90
43143;DHT22;28750;59.842;17.584;2024-03-25T12:45:22;3.60;99.90
43143;DHT22;28750;59.842;17.584;2024-03-25T12:47:48;3.70;99.90
43143;DHT22;28750;59.842;17.584;2024-03-25T12:50:14;3.50;99.90
43143;DHT22;28750;59.842;17.584;2024-03-25T12:52:40;3.70;99.90
43143;DHT22;28750;59.842;17.584;2024-03-25T12:55:06;3.60;99.90
43143;DHT22;28750;59.842;17.584;2024-03-25T12:57:32;3.60;99.90
43143;DHT22;28750;59.842;17.584;2024-03-25T12:59:59;3.60;99.90
43143;DHT22;28750;59.842;17.584;2024-03-25T13:02:25;3.60;99.90
43143;DHT22;28750;59.842;17.584;2024-03-25T13:04:51;3.60;99.90
43143;DHT22;28750;59.842;17.584;2024-03-25T13:07:17;3.50;99.90
43143;DHT22;28750;59.842;17.584;2024-03-25T13:09:43;3.50;99.90
43143;DHT22;28750;59.842;17.584;2024-03-25T13:12:09;3.50;99.90
43143;DHT22;28750;59.842;17.584;2024-03-25T13:14:35;3.20;99.90
43143;DHT22;28750;59.842;17.584;2024-03-25T13:17:01;3.30;99.90
43143;DHT22;28750;59.842;17.584;2024-03-25T13:19:27;3.30;99.90
43143;DHT22;28750;59.842;17.584;2024-03-25T13:21:55;3.30;99.90
43143;DHT22;28750;59.842;17.584;2024-03-25T13:24:21;3.40;99.90
43143;DHT22;28750;59.842;17.584;2024-03-25T13:26:47;3.40;99.90
43143;DHT22;28750;59.842;17.584;2024-03-25T13:29:13;3.50;99.90
43143;DHT22;28750;59.842;17.584;2024-03-25T13:31:39;3.40;99.90
43143;DHT22;28750;59.842;17.584;2024-03-25T13:34:05;3.50;99.90
43143;DHT22;28750;59.842;17.584;2024-03-25T13:36:31;3.50;99.90
43143;DHT22;28750;59.842;17.584;2024-03-25T13:38:57;3.60;99.90
43143;DHT22;28750;59.842;17.584;2024-03-25T13:41:23;3.60;99.90
43143;DHT22;28750;59.842;17.584;2024-03-25T13:43:50;3.50;99.90
43143;DHT22;28750;59.842;17.584;2024-03-25T13:46:16;3.40;99.90
43143;DHT22;28750;59.842;17.584;2024-03-25T13:48:43;3.50;99.90
43143;DHT22;28750;59.842;17.584;2024-03-25T13:51:09;3.60;99.90
43143;DHT22;28750;59.842;17.584;2024-03-25T13:53:35;3.50;99.90
43143;DHT22;28750;59.842;17.584;2024-03-25T13:56:01;3.40;99.90
43143;DHT22;28750;59.842;17.584;2024-03-25T13:58:27;3.30;99.90
43143;DHT22;28750;59.842;17.584;2024-03-25T14:00:53;3.40;99.90
43143;DHT22;28750;59.842;17.584;2024-03-25T14:03:19;3.20;99.90
43143;DHT22;28750;59.842;17.584;2024-03-25T14:05:45;3.20;99.90
43143;DHT22;28750;59.842;17.584;2024-03-25T14:08:11;3.30;99.90
43143;DHT22;28750;59.842;17.584;2024-03-25T14:10:37;3.30;99.90
43143;DHT22;28750;59.842;17.584;2024-03-25T14:13:03;3.40;99.90
43143;DHT22;28750;59.842;17.584;2024-03-25T14:15:29;3.20;99.90
43143;DHT22;28750;59.842;17.584;2024-03-25T14:17:55;3.30;99.90
43143;DHT22;28750;59.842;17.584;2024-03-25T14:20:21;3.20;99.90
43143;DHT22;28750;59.842;17.584;2024-03-25T14:22:47;3.20;99.90
43143;DHT22;28750;59.842;17.584;2024-03-25T14:25:13;3.10;99.90
43143;DHT22;28750;59.842;17.584;2024-03-25T14:27:39;3.40;99.90
